Hebron, Nebraska
Current Conditions -  °F | °C
As of 10:15 AM on Monday 24 Nov 2014 (Local Time) from KHJH Reporting Station
Clear Clear  
Wind Chill: 20°   Ceiling: Unl
Heat Index: 33°   Visibility: 10mi
Dew Point: 19°   Wind: 22mph
Humidity: 58%   Direction: 310°NW
Pressure: 29.8"   Gusts: 29mph
Location:  40.17°N, 97.59°W
Report Text: KHJH 241615Z AUTO 31019G25KT 10SM CLR 00/M07 A2980 RMK AO2 T00031071
Loading
Personal Weather Stations






























Interactive Weather Map New forecast layout! Learn more

10-Day Weather Forecast

Advertisements
Track Severe Weather on mobile